Latest Weather Observations for Lombadina

IDW60801

Issued at 1:32 pm WST Friday 4 September 2015 (issued every 30 minutes, with the page automatically refreshed every 10 minutes)

About weather observations | Map of weather stations | Latest weather observations for WA | Other Formats
Station Details ID: 503016 Name: LOMBADINA AIRSTRIP Lat: -16.52 Lon: 122.92 Height: 42.0 m
Data from the previous 72 hours. | See also: Recent months for locations in Western Australia
Date/Time
WST
Temp
°C
App
Temp
°C
Dew
Point
Rel
Hum
%
Delta-T
°C
Wind Press
QNH
hPa
Press
MSL
hPa
Rain
since 9 am
mm
Dir
 
Spd
km/h
Gust
km/h
Spd
kts
Gust
kts
04/01:30pm 29.4 29.3 17.0 47 7.8 NW 13 20 7 11 1014.9 1014.7 0.0
04/01:00pm 29.7 30.0 17.1 46 7.9 WNW 11 19 6 10 1015.2 1015.0 0.0
04/12:30pm 32.6 32.6 14.2 32 11.2 NNE 7 13 4 7 1015.5 1015.3 0.0
04/12:00pm 32.5 30.7 8.0 22 13.6 E 7 13 4 7 1016.0 1015.8 0.0
04/11:30am 31.6 29.2 8.7 24 12.8 E 11 17 6 9 1016.3 1016.1 0.0
04/11:00am 31.3 29.6 11.1 29 11.7 E 11 20 6 11 1016.6 1016.4 0.0
04/10:30am 32.0 29.2 6.9 21 13.6 SE 11 19 6 10 1016.9 1016.7 0.0
04/10:00am 30.9 27.9 6.1 21 13.2 SSE 11 19 6 10 1017.3 1017.1 0.0
04/09:30am 30.0 27.5 8.0 25 12.1 SSE 11 20 6 11 1017.6 1017.4 0.0
04/09:00am 29.1 27.0 8.2 27 11.4 SSE 9 17 5 9 1017.7 1017.5 0.0
04/08:30am 27.4 25.4 8.7 30 10.2 SSE 9 17 5 9 1017.8 1017.6 0.0
04/08:00am 25.5 24.9 13.5 47 7.0 SSE 9 17 5 9 1017.8 1017.6 0.0
04/07:30am 23.5 23.8 17.0 67 4.0 SE 11 20 6 11 1017.6 1017.4 0.0
04/07:00am 22.3 24.0 18.5 79 2.4 SE 7 15 4 8 1017.6 1017.4 0.0
04/06:30am 20.8 21.8 16.8 78 2.4 SE 7 13 4 7 1017.3 1017.1 0.0
04/06:00am 20.2 20.9 16.2 78 2.4 SE 7 13 4 7 1017.0 1016.8 0.0
04/05:30am 19.0 20.1 17.0 88 1.2 SE 7 9 4 5 1016.7 1016.5 0.0
04/05:00am 17.4 18.6 16.8 96 0.4 SE 6 9 3 5 1016.3 1016.1 0.0
04/04:30am 16.9 18.3 16.4 97 0.3 ENE 4 6 2 3 1016.0 1015.8 0.0
04/04:00am 17.2 19.0 16.5 96 0.4 NE 2 4 1 2 1015.7 1015.5 0.0
04/03:30am 17.5 19.3 16.5 94 0.6 NNE 2 4 1 2 1015.5 1015.3 0.0
04/03:00am 18.3 20.5 16.6 90 1.0 CALM 0 4 0 2 1015.5 1015.3 0.0
04/02:30am 19.8 21.7 16.7 82 1.9 NW 2 6 1 3 1015.6 1015.4 0.0
04/02:00am 21.0 22.2 17.3 79 2.3 SW 7 13 4 7 1015.3 1015.1 0.0
04/01:30am 21.3 21.5 17.6 79 2.3 SW 13 22 7 12 1015.3 1015.1 0.0
04/01:00am 21.2 21.9 18.0 82 2.0 SW 11 24 6 13 1015.4 1015.2 0.0
04/12:30am 21.0 21.7 18.9 88 1.3 SW 13 19 7 10 1015.9 1015.7 0.0
04/12:00am 20.9 22.1 19.0 89 1.2 SW 11 19 6 10 1016.4 1016.2 0.0
 
Date/Time
WST
Temp
°C
App
Temp
°C
Dew
Point
Rel
Hum
%
Delta-T
°C
Wind Press
QNH
hPa
Press
MSL
hPa
Rain
since 9 am
mm
Dir
 
Spd
km/h
Gust
km/h
Spd
kts
Gust
kts
03/11:30pm 21.3 23.0 19.3 88 1.3 SW 9 19 5 10 1016.8 1016.6 0.0
03/11:00pm 21.6 22.6 19.4 87 1.4 SW 13 22 7 12 1017.0 1016.8 0.0
03/10:30pm 21.6 23.6 19.9 90 1.1 SW 9 19 5 10 1017.3 1017.1 0.0
03/10:00pm 21.8 24.0 20.4 92 0.9 SW 9 17 5 9 1017.5 1017.3 0.0
03/09:30pm 22.0 24.6 20.4 91 1.0 SW 7 13 4 7 1017.3 1017.1 0.0
03/09:00pm 21.9 24.5 20.4 91 1.0 SW 7 15 4 8 1017.3 1017.1 0.0
03/08:30pm 21.8 24.2 20.0 89 1.2 SW 7 13 4 7 1017.2 1017.0 0.0
03/08:00pm 22.4 24.4 19.9 86 1.6 WSW 9 13 5 7 1017.1 1016.9 0.0
03/07:30pm 22.6 24.8 19.7 84 1.9 WSW 7 13 4 7 1017.0 1016.8 0.0
03/07:00pm 23.1 25.3 19.7 81 2.2 WSW 7 17 4 9 1016.6 1016.4 0.0
03/06:30pm 23.6 25.4 19.6 78 2.6 WSW 9 17 5 9 1016.3 1016.1 0.0
03/06:00pm 24.0 26.2 19.5 76 2.9 WSW 7 15 4 8 1016.1 1015.9 0.0
03/05:30pm 24.9 26.9 19.2 70 3.7 W 7 13 4 7 1015.8 1015.6 0.0
03/05:00pm 25.9 27.0 18.1 62 4.9 W 9 19 5 10 1015.5 1015.3 0.0
03/04:30pm 27.0 27.6 17.7 56 5.9 W 11 20 6 11 1015.3 1015.1 0.0
03/04:00pm 27.1 27.7 17.8 56 5.9 WNW 11 19 6 10 1015.2 1015.0 0.0
03/03:30pm 27.2 27.9 18.0 57 5.8 W 11 17 6 9 1015.0 1014.8 0.0
03/03:00pm 27.8 28.7 18.5 57 6.0 W 11 19 6 10 1015.0 1014.8 0.0
03/02:30pm 27.1 28.0 18.3 58 5.6 WNW 11 19 6 10 1015.1 1014.9 0.0
03/02:00pm 27.6 28.3 18.0 55 6.1 NW 11 19 6 10 1015.2 1015.0 0.0
03/01:30pm 27.0 27.5 18.3 59 5.5 WNW 13 20 7 11 1015.3 1015.1 0.0
03/01:00pm 27.4 28.1 18.0 56 6.0 WNW 11 20 6 11 1015.7 1015.5 0.0
03/12:30pm 27.0 27.8 19.1 62 5.1 NW 13 19 7 10 1016.1 1015.9 0.0
03/12:00pm 27.0 27.2 17.7 56 5.9 NW 13 20 7 11 1016.3 1016.1 0.0
03/11:30am 29.0 30.1 17.0 48 7.5 ENE 7 19 4 10 1016.7 1016.5 0.0
03/11:00am 28.7 27.8 11.4 34 9.9 SSW 7 13 4 7 1017.1 1016.9 0.0
03/10:30am 28.3 28.2 13.2 39 8.9 SSE 6 11 3 6 1017.7 1017.5 0.0
03/10:00am 26.7 27.7 16.9 55 6.1 SSE 7 15 4 8 1018.1 1017.9 0.0
03/09:30am 25.4 26.7 17.6 62 4.9 SSE 7 19 4 10 1018.3 1018.1 0.0
03/09:00am 24.1 25.5 17.8 68 3.9 ESE 7 15 4 8 1018.3 1018.1 0.0
03/08:30am 23.5 25.2 18.1 71 3.4 SSE 6 17 3 9 1018.2 1018.0 0.0
03/08:00am 22.7 23.9 18.2 76 2.8 SE 9 17 5 9 1018.1 1017.9 0.0
03/07:30am 21.4 22.9 18.1 81 2.1 SE 7 13 4 7 1018.2 1018.0 0.0
03/07:00am 19.1 20.2 17.2 89 1.2 SE 7 17 4 9 1017.9 1017.7 0.0
03/06:30am 18.7 20.0 17.6 93 0.7 S 7 11 4 6 1017.3 1017.1 0.0
03/06:00am 16.9 18.0 16.6 98 0.2 S 6 7 3 4 1017.0 1016.8 0.0
03/05:30am 16.7 18.1 16.4 98 0.2 SSE 4 7 2 4 1016.4 1016.2 0.0
03/05:00am 16.3 17.5 16.0 98 0.2 SSE 4 6 2 3 1015.8 1015.6 0.0
03/04:30am 17.1 18.9 16.5 96 0.4 SSE 2 6 1 3 1015.6 1015.4 0.0
03/04:00am 17.7 19.3 17.0 96 0.4 S 4 7 2 4 1015.5 1015.3 0.0
03/03:30am 18.2 20.4 17.5 96 0.4 S 2 7 1 4 1015.5 1015.3 0.0
03/03:00am 18.2 19.5 17.1 93 0.7 SW 6 9 3 5 1015.5 1015.3 0.0
03/02:30am 18.7 20.0 17.0 90 1.0 SW 6 9 3 5 1015.6 1015.4 0.0
03/02:00am 18.7 19.9 16.9 89 1.1 SW 6 9 3 5 1015.8 1015.6 0.0
03/01:30am 19.4 20.9 17.6 89 1.1 WSW 6 9 3 5 1015.9 1015.7 0.0
03/01:00am 19.5 21.0 17.7 89 1.1 WSW 6 11 3 6 1015.9 1015.7 0.0
03/12:30am 20.0 21.4 17.8 87 1.4 WSW 7 11 4 6 1016.3 1016.1 0.0
03/12:00am 20.1 21.5 17.9 87 1.4 WSW 7 11 4 6 1016.6 1016.4 0.0
 
Date/Time
WST
Temp
°C
App
Temp
°C
Dew
Point
Rel
Hum
%
Delta-T
°C
Wind Press
QNH
hPa
Press
MSL
hPa
Rain
since 9 am
mm
Dir
 
Spd
km/h
Gust
km/h
Spd
kts
Gust
kts
02/11:30pm 19.6 21.3 18.0 90 1.0 WSW 6 9 3 5 1016.7 1016.5 0.0
02/11:00pm 19.7 21.3 17.8 89 1.2 WSW 6 9 3 5 1016.9 1016.7 0.0
02/10:30pm 20.8 22.3 18.0 84 1.7 WSW 7 13 4 7 1016.8 1016.6 0.0
02/10:00pm 20.3 22.0 18.0 87 1.4 WSW 6 11 3 6 1016.9 1016.7 0.0
02/09:30pm 20.4 22.1 18.0 86 1.5 WSW 6 9 3 5 1016.9 1016.7 0.0
02/09:00pm 21.3 22.9 17.8 80 2.2 WSW 6 9 3 5 1016.9 1016.7 0.0
02/08:30pm 22.0 23.9 18.5 80 2.2 WSW 6 11 3 6 1016.8 1016.6 0.0
02/08:00pm 22.3 24.0 18.0 76 2.7 W 6 11 3 6 1016.7 1016.5 0.0
02/07:30pm 22.6 24.4 18.2 76 2.8 W 6 9 3 5 1016.4 1016.2 0.0
02/07:00pm 23.0 24.7 18.0 73 3.1 W 6 11 3 6 1016.1 1015.9 0.0
02/06:30pm 22.9 24.3 17.4 71 3.4 WSW 6 11 3 6 1015.7 1015.5 0.0
02/06:00pm 23.4 24.7 17.5 69 3.7 W 7 15 4 8 1015.4 1015.2 0.0
02/05:30pm 24.2 25.0 17.4 65 4.2 W 9 19 5 10 1015.1 1014.9 0.0
02/05:00pm 25.2 25.5 17.1 60 5.0 WNW 11 19 6 10 1014.9 1014.7 0.0
02/04:30pm 25.8 26.0 16.8 57 5.6 WNW 11 19 6 10 1014.7 1014.5 0.0
02/04:00pm 26.0 26.0 17.3 58 5.4 NW 13 20 7 11 1014.5 1014.3 0.0
02/03:30pm 26.1 26.3 17.6 59 5.3 WNW 13 20 7 11 1014.4 1014.2 0.0
02/03:00pm 25.8 26.0 17.7 61 5.1 WNW 13 22 7 12 1014.3 1014.1 0.0
02/02:30pm 26.0 26.1 17.4 59 5.4 WNW 13 26 7 14 1014.5 1014.3 0.0
02/02:00pm 26.4 26.6 17.7 58 5.5 WNW 13 26 7 14 1014.8 1014.6 0.0
02/01:30pm 26.3 26.4 17.4 58 5.6 WNW 13 22 7 12 1015.1 1014.9 0.0
02/01:00pm 26.8 26.9 17.5 56 5.8 WNW 13 22 7 12 1015.3 1015.1 0.0
02/12:30pm 26.4 26.0 16.2 53 6.3 NW 13 22 7 12 1015.4 1015.2 0.0
02/12:00pm 27.8 27.3 15.9 48 7.3 NW 13 20 7 11 1015.7 1015.5 0.0
02/11:30am 27.1 27.1 17.1 54 6.3 NW 13 19 7 10 1016.1 1015.9 0.0
02/11:00am 27.4 27.8 16.4 51 6.8 NW 9 15 5 8 1016.6 1016.4 0.0
02/10:30am 26.6 27.3 17.1 56 5.9 WNW 9 19 5 10 1017.0 1016.8 0.0
02/10:00am 26.0 26.5 16.5 55 5.9 WNW 9 19 5 10 1017.2 1017.0 0.0
02/09:30am 26.3 27.2 16.7 55 6.0 WNW 7 17 4 9 1017.3 1017.1 0.0
02/09:00am 26.5 27.4 16.0 52 6.4 NE 6 9 3 5 1017.1 1016.9 0.0
02/08:30am 24.9 25.9 16.4 59 5.2 WSW 6 11 3 6 1016.9 1016.7 0.0
02/08:00am 24.0 25.9 17.6 67 4.0 S 4 9 2 5 1016.6 1016.4 0.0
02/07:30am 22.6 24.5 17.7 74 3.0 S 4 7 2 4 1016.4 1016.2 0.0
02/07:00am 21.0 22.7 18.0 83 1.9 SW 6 7 3 4 1016.0 1015.8 0.0
02/06:30am 18.1 19.7 17.9 99 0.1 SW 6 7 3 4 1015.7 1015.5 0.0
02/06:00am 16.7 18.1 16.5 99 0.1 SSW 4 7 2 4 1015.5 1015.3 0.0
02/05:30am 17.1 18.3 16.8 98 0.2 SSW 6 7 3 4 1015.2 1015.0 0.0
02/05:00am 17.2 18.8 16.8 97 0.2 S 4 6 2 3 1015.0 1014.8 0.0
02/04:30am 17.6 19.3 17.2 97 0.2 SSW 4 7 2 4 1014.7 1014.5 0.0
02/04:00am 17.6 19.3 17.2 97 0.2 S 4 6 2 3 1014.7 1014.5 0.0
02/03:30am 17.5 19.2 17.2 98 0.2 SSE 4 6 2 3 1014.9 1014.7 0.0
02/03:00am 17.3 18.9 16.8 97 0.3 S 4 6 2 3 1015.1 1014.9 0.0
02/02:30am 17.4 19.0 16.8 96 0.4 SSE 4 6 2 3 1015.0 1014.8 0.0
02/02:00am 17.2 18.6 16.5 96 0.4 S 4 6 2 3 1014.8 1014.6 0.0
02/01:30am 17.8 19.8 16.9 94 0.5 SSW 2 4 1 2 1014.8 1014.6 0.0
02/01:00am 18.3 20.1 17.4 94 0.5 SSW 4 7 2 4 1015.1 1014.9 0.0
02/12:30am 18.3 20.2 17.6 96 0.4 SW 4 6 2 3 1015.2 1015.0 0.0
02/12:00am 18.2 20.3 17.1 93 0.7 SW 2 4 1 2 1015.6 1015.4 0.0
 
Date/Time
WST
Temp
°C
App
Temp
°C
Dew
Point
Rel
Hum
%
Delta-T
°C
Wind Press
QNH
hPa
Press
MSL
hPa
Rain
since 9 am
mm
Dir
 
Spd
km/h
Gust
km/h
Spd
kts
Gust
kts
01/11:30pm 18.4 20.5 17.3 93 0.7 SW 2 4 1 2 1015.8 1015.6 0.0
01/11:00pm 18.5 20.8 16.7 89 1.1 CALM 0 4 0 2 1015.8 1015.6 0.0
01/10:30pm 19.1 20.7 16.8 86 1.4 SW 4 7 2 4 1015.7 1015.5 0.0
01/10:00pm 20.1 22.0 16.8 81 2.0 WSW 2 6 1 3 1015.6 1015.4 0.0
01/09:30pm 21.0 22.9 17.6 81 2.1 WSW 4 7 2 4 1015.6 1015.4 0.0
01/09:00pm 21.9 23.5 17.8 77 2.5 WSW 6 11 3 6 1015.6 1015.4 0.0
01/08:30pm 22.4 24.0 17.9 75 2.8 WSW 6 9 3 5 1015.4 1015.2 0.0
01/08:00pm 22.7 24.6 18.5 77 2.6 WSW 6 11 3 6 1015.2 1015.0 0.0
01/07:30pm 22.9 24.5 18.3 75 2.9 WSW 7 15 4 8 1014.9 1014.7 0.0
01/07:00pm 22.9 24.7 18.3 75 2.9 WSW 6 13 3 7 1014.5 1014.3 0.0
01/06:30pm 23.3 24.9 18.2 73 3.2 WSW 7 15 4 8 1014.0 1013.8 0.0
01/06:00pm 23.9 24.9 17.7 68 3.9 WSW 9 15 5 8 1013.6 1013.4 0.0
01/05:30pm 24.5 24.9 17.3 64 4.5 WSW 11 20 6 11 1013.5 1013.3 0.0
01/05:00pm 25.6 25.5 16.9 58 5.4 W 13 28 7 15 1013.1 1012.9 0.0
01/04:30pm 26.0 25.7 16.4 55 5.9 W 13 26 7 14 1013.0 1012.8 0.0
01/04:00pm 26.5 25.5 16.6 54 6.1 WSW 17 28 9 15 1013.0 1012.8 0.0
01/03:30pm 26.6 25.5 16.4 53 6.3 WSW 17 32 9 17 1012.9 1012.7 0.0
01/03:00pm 26.8 26.0 17.2 55 6.0 WSW 17 32 9 17 1012.9 1012.7 0.0
01/02:30pm 26.7 25.9 17.2 56 5.9 W 17 33 9 18 1012.9 1012.7 0.0
01/02:00pm 27.5 26.4 16.4 50 6.9 W 17 28 9 15 1013.2 1013.0 0.0

Other Formats:

Comma delimited format used in spreadsheet applications
http://www.bom.gov.au/fwo/IDW60801/IDW60801.99206.axf

JavaScript Object Notation format (JSON) in row-major order
http://www.bom.gov.au/fwo/IDW60801/IDW60801.99206.json